createdAt,value
2023-04-21T00:01:35.773Z,7.2
2023-04-21T00:06:32.317Z,7.1
2023-04-21T00:11:29.191Z,7.1
2023-04-21T00:16:25.974Z,6.9
2023-04-21T00:22:36.410Z,6.8
2023-04-21T00:27:32.939Z,6.8
2023-04-21T00:32:29.576Z,6.8
2023-04-21T00:43:36.631Z,6.8
2023-04-21T00:48:33.077Z,6.7
2023-04-21T00:53:29.633Z,6.7
2023-04-21T00:58:26.233Z,6.8
2023-04-21T01:04:36.879Z,6.9
2023-04-21T01:09:33.381Z,6.8
2023-04-21T01:14:29.876Z,6.8
2023-04-21T01:19:26.589Z,7
2023-04-21T01:25:37.224Z,6.9
2023-04-21T01:30:33.855Z,7
2023-04-21T01:35:30.193Z,7
2023-04-21T01:40:26.833Z,6.9
2023-04-21T01:46:37.544Z,6.8
2023-04-21T01:51:34.091Z,6.8
2023-04-21T01:56:30.505Z,7.1
2023-04-21T02:07:37.778Z,7.2
2023-04-21T02:12:34.266Z,7.1
2023-04-21T02:17:30.660Z,7.1
2023-04-21T02:22:27.323Z,7.1
2023-04-21T02:28:37.918Z,6.8
2023-04-21T02:33:34.459Z,6.8
2023-04-21T02:38:30.957Z,6.6
2023-04-21T02:43:27.610Z,6.4
2023-04-21T02:49:38.097Z,6.5
2023-04-21T02:54:34.649Z,6.3
2023-04-21T02:59:31.201Z,6.1
2023-04-21T03:04:27.832Z,6.2
2023-04-21T03:10:38.470Z,6.1
2023-04-21T03:15:34.942Z,6.1
2023-04-21T03:20:31.578Z,6.2
2023-04-21T03:25:28.337Z,6.3
2023-04-21T03:31:38.861Z,6.1
2023-04-21T03:36:35.212Z,6
2023-04-21T03:41:31.746Z,5.9
2023-04-21T03:46:29.013Z,6
2023-04-21T03:51:25.123Z,6
2023-04-21T03:57:35.500Z,5.9
2023-04-21T04:02:32.074Z,5.8
2023-04-21T04:07:29.108Z,6.1
2023-04-21T04:12:25.193Z,6
2023-04-21T04:18:35.783Z,6
2023-04-21T04:23:32.392Z,5.8
2023-04-21T04:28:29.358Z,5.9
2023-04-21T04:33:25.538Z,6
2023-04-21T04:39:36.075Z,6.1
2023-04-21T04:44:32.509Z,6.1
2023-04-21T04:49:29.381Z,6.4
2023-04-21T04:54:25.630Z,6.5
2023-04-21T05:00:36.264Z,6.6
2023-04-21T05:05:33.175Z,6.5
2023-04-21T05:10:29.446Z,6.6
2023-04-21T05:15:25.910Z,6.4
2023-04-21T05:21:36.571Z,6.3
2023-04-21T05:26:33.140Z,6.3
2023-04-21T05:31:29.607Z,6.3
2023-04-21T05:36:26.194Z,6.2
2023-04-21T05:42:36.779Z,6.3
2023-04-21T05:47:33.418Z,6.5
2023-04-21T05:52:29.861Z,6.5
2023-04-21T05:57:26.428Z,6.6
2023-04-21T06:03:37.164Z,6.8
2023-04-21T06:08:33.802Z,7.1
2023-04-21T06:13:30.202Z,7.4
2023-04-21T06:18:26.805Z,7.7
2023-04-21T06:24:37.354Z,7.4
2023-04-21T06:29:33.907Z,7.4
2023-04-21T06:34:30.296Z,7.3
2023-04-21T06:45:37.735Z,8.3
2023-04-21T06:50:34.246Z,8.4
2023-04-21T06:55:30.997Z,8.4
2023-04-21T07:00:27.405Z,8.4
2023-04-21T07:06:38.063Z,8.5
2023-04-21T07:11:34.542Z,9.1
2023-04-21T07:16:30.913Z,9.5
2023-04-21T07:21:27.594Z,9.4
2023-04-21T07:27:38.254Z,10
2023-04-21T07:32:34.828Z,9.7
2023-04-21T07:37:31.287Z,9.4
2023-04-21T07:42:27.838Z,10.3
2023-04-21T07:48:38.628Z,10.7
2023-04-21T07:53:35.027Z,10.5
2023-04-21T07:58:31.493Z,10.6
2023-04-21T08:03:28.116Z,10.6
2023-04-21T08:09:38.666Z,10.7
2023-04-21T08:14:35.269Z,10.8
2023-04-21T08:19:31.789Z,11
2023-04-21T08:24:28.778Z,11.7
2023-04-21T08:29:33.184Z,11.9
2023-04-21T08:34:29.895Z,11.7
2023-04-21T08:39:26.226Z,12
2023-04-21T08:45:36.941Z,13.7
2023-04-21T08:50:33.522Z,13.5
2023-04-21T08:55:29.756Z,13.3
2023-04-21T09:00:26.318Z,13.1
2023-04-21T09:06:37.057Z,13
2023-04-21T09:11:33.455Z,12.6
2023-04-21T09:16:29.984Z,13
2023-04-21T09:21:26.817Z,13.2
2023-04-21T09:27:37.151Z,12.9
2023-04-21T09:32:34.111Z,13.5
2023-04-21T09:37:30.360Z,13.1
2023-04-21T09:42:27.166Z,13.7
2023-04-21T09:48:37.547Z,14.7
2023-04-21T09:53:34.201Z,15
2023-04-21T09:58:30.555Z,15.3
2023-04-21T10:03:27.405Z,15.6
2023-04-21T10:09:37.873Z,15.8
2023-04-21T10:14:34.446Z,16.3
2023-04-21T10:19:30.798Z,16.5
2023-04-21T10:24:27.522Z,17
2023-04-21T10:30:38.136Z,16.8
2023-04-21T10:35:34.742Z,16.4
2023-04-21T10:40:43.174Z,16.6
2023-04-21T10:45:27.835Z,16.5
2023-04-21T10:51:38.580Z,16.3
2023-04-21T10:56:36.902Z,16.8
2023-04-21T11:01:31.295Z,16.8
2023-04-21T11:06:28.090Z,16.5
2023-04-21T11:12:38.686Z,17.4
2023-04-21T11:17:35.249Z,17.9
2023-04-21T11:22:31.568Z,17.8
2023-04-21T11:27:28.355Z,18.7
2023-04-21T11:33:38.821Z,20
2023-04-21T11:38:35.375Z,19.9
2023-04-21T11:43:31.936Z,20.4
2023-04-21T11:48:28.438Z,20.1
2023-04-21T11:53:25.199Z,20.9
2023-04-21T11:59:35.619Z,22.1
2023-04-21T12:04:34.466Z,22.5
2023-04-21T12:09:29.213Z,23.2
2023-04-21T12:14:25.376Z,23.3
2023-04-21T12:20:36.098Z,23.5
2023-04-21T12:25:32.569Z,24.3
2023-04-21T12:30:29.675Z,23.6
2023-04-21T12:35:25.492Z,24.9
2023-04-21T12:41:36.174Z,23.9
2023-04-21T12:51:29.599Z,26.2
2023-04-21T12:56:25.976Z,27.4
2023-04-21T13:02:36.643Z,26.4
2023-04-21T13:07:33.165Z,24.8
2023-04-21T13:12:29.674Z,26.2
2023-04-21T13:17:26.269Z,27.1
2023-04-21T13:23:36.781Z,27.4
2023-04-21T13:28:33.461Z,27.2
2023-04-21T13:33:29.809Z,27.1
2023-04-21T13:38:26.403Z,28.3
2023-04-21T13:44:36.983Z,27.9
2023-04-21T13:49:33.885Z,28.5
2023-04-21T13:54:30.236Z,29.1
2023-04-21T13:59:26.661Z,28.4
2023-04-21T14:05:37.371Z,29.2
2023-04-21T14:10:33.951Z,29.9
2023-04-21T14:15:30.355Z,27.9
2023-04-21T14:20:27.038Z,28.9
2023-04-21T14:26:37.529Z,30
2023-04-21T14:31:34.100Z,30.5
2023-04-21T14:36:30.567Z,30.6
2023-04-21T14:41:27.120Z,30.6
2023-04-21T14:47:37.972Z,29.5
2023-04-21T14:52:34.461Z,30.1
2023-04-21T14:57:30.850Z,30.3
2023-04-21T15:02:27.694Z,30.8
2023-04-21T15:08:38.147Z,30.7
2023-04-21T15:13:34.779Z,31.9
2023-04-21T15:18:31.094Z,31.1
2023-04-21T15:23:27.801Z,30
2023-04-21T15:29:38.539Z,29.4
2023-04-21T15:34:34.835Z,31.8
2023-04-21T15:39:31.390Z,31.1
2023-04-21T15:44:28.187Z,24.7
2023-04-21T15:50:38.605Z,28.6
2023-04-21T15:55:35.286Z,31.4
2023-04-21T16:00:31.584Z,27.6
2023-04-21T16:05:29.344Z,26.8
2023-04-21T16:11:38.936Z,29.8
2023-04-21T16:16:35.658Z,28.4
2023-04-21T16:21:31.977Z,28
2023-04-21T16:26:28.536Z,31.3
2023-04-21T16:32:39.451Z,32.1
2023-04-21T16:37:35.807Z,32.2
2023-04-21T16:42:32.332Z,32.5
2023-04-21T16:47:29.056Z,31.3
2023-04-21T16:52:25.395Z,30.8
2023-04-21T16:58:35.932Z,31
2023-04-21T17:03:33.065Z,31.6
2023-04-21T17:08:29.501Z,30
2023-04-21T17:13:25.638Z,30.7
2023-04-21T17:19:36.325Z,30.6
2023-04-21T17:29:30.041Z,24.9
2023-04-21T17:34:25.929Z,21
2023-04-21T17:40:36.456Z,18.7
2023-04-21T17:45:33.376Z,18
2023-04-21T17:50:29.807Z,17.8
2023-04-21T18:01:36.809Z,17
2023-04-21T18:06:33.789Z,16.8
2023-04-21T18:11:29.854Z,16.9
2023-04-21T18:16:26.733Z,16.6
2023-04-21T18:22:37.063Z,16.4
2023-04-21T18:27:33.559Z,16.3
2023-04-21T18:32:30.166Z,16.3
2023-04-21T18:37:26.918Z,16.2
2023-04-21T18:43:37.310Z,16
2023-04-21T18:48:34.258Z,16
2023-04-21T18:53:30.270Z,15.9
2023-04-21T18:58:26.915Z,13.1
2023-04-21T19:04:37.930Z,12.8
2023-04-21T19:09:34.101Z,12.7
2023-04-21T19:14:39.555Z,12.7
2023-04-21T19:19:27.351Z,12.7
2023-04-21T19:25:37.954Z,12.9
2023-04-21T19:30:34.658Z,13.1
2023-04-21T19:35:30.854Z,13.1
2023-04-21T19:40:27.356Z,13
2023-04-21T19:46:38.291Z,12.7
2023-04-21T19:51:34.748Z,12.7
2023-04-21T19:56:31.089Z,12.3
2023-04-21T20:01:27.609Z,12.1
2023-04-21T20:07:38.363Z,11.9
2023-04-21T20:12:34.876Z,11.8
2023-04-21T20:17:31.425Z,11.7
2023-04-21T20:22:28.005Z,11.7
2023-04-21T20:28:38.666Z,11.6
2023-04-21T20:33:35.192Z,11.4
2023-04-21T20:38:31.664Z,11.3
2023-04-21T20:43:28.316Z,11.2
2023-04-21T20:49:39.340Z,11.2
2023-04-21T20:53:34.521Z,11.2
2023-04-21T21:04:36.737Z,11.3
2023-04-21T21:09:33.452Z,11.1
2023-04-21T21:14:30.158Z,11.1
2023-04-21T21:19:26.354Z,10.9
2023-04-21T21:25:36.878Z,10.9
2023-04-21T21:30:33.544Z,10.8
2023-04-21T21:35:30.181Z,10.7
2023-04-21T21:40:26.664Z,10.7
2023-04-21T21:46:37.292Z,10.7
2023-04-21T21:51:33.774Z,10.4
2023-04-21T21:56:30.299Z,10.3
2023-04-21T22:01:26.753Z,10.4
2023-04-21T22:07:37.475Z,10.4
2023-04-21T22:12:34.133Z,10.4
2023-04-21T22:17:30.613Z,10.4
2023-04-21T22:28:37.791Z,10.4
2023-04-21T22:33:34.449Z,10.4
2023-04-21T22:38:30.819Z,10.5
2023-04-21T22:43:27.338Z,10.5
2023-04-21T22:49:38.278Z,10.1
2023-04-21T22:54:34.587Z,10.4
2023-04-21T22:59:31.020Z,10.4
2023-04-21T23:04:27.720Z,10.3
2023-04-21T23:10:38.267Z,10.4
2023-04-21T23:15:34.815Z,10.6
2023-04-21T23:20:31.371Z,10.7
2023-04-21T23:25:27.967Z,10.6
2023-04-21T23:31:38.664Z,10.7
2023-04-21T23:36:35.107Z,10.6
2023-04-21T23:41:32.692Z,10.6
2023-04-21T23:46:28.383Z,10.6
2023-04-21T23:52:38.755Z,10.7
2023-04-21T23:57:35.348Z,10.6
